Time;durP1;ratioP1;P1;durP2;ratioP2;P2;SDS_P1;SDS_P2;PMS_P1;PMS_P2;Temp;Humidity;BMP_temperature;BMP_pressure;BME280_temperature;BME280_humidity;BME280_pressure;Samples;Min_cycle;Max_cycle;Signal;HPM_P1;HPM_P2
2023/02/27 00:00:16;;;;;;;3.60;2.60;;;0.90;99.90;;;;;;5004206;28;20470;-75
2023/02/27 00:02:47;;;;;;;2.43;1.90;;;1.00;99.90;;;;;;5005008;28;20231;-71
2023/02/27 00:05:13;;;;;;;2.10;1.90;;;1.00;99.90;;;;;;5004609;28;20406;-73
2023/02/27 00:07:39;;;;;;;6.17;2.60;;;1.10;99.90;;;;;;4986298;28;20448;-73
2023/02/27 00:10:05;;;;;;;2.43;2.23;;;1.00;99.90;;;;;;5004432;28;20474;-72
2023/02/27 00:12:36;;;;;;;3.20;2.00;;;1.00;99.90;;;;;;5004272;28;20258;-73
2023/02/27 00:15:07;;;;;;;1.83;1.73;;;1.10;99.90;;;;;;4986970;28;20414;-72
2023/02/27 00:17:33;;;;;;;3.73;2.17;;;1.20;99.90;;;;;;4986997;28;20433;-71
2023/02/27 00:19:58;;;;;;;3.17;2.20;;;1.20;99.90;;;;;;4985925;28;20466;-71
2023/02/27 00:22:24;;;;;;;2.73;2.13;;;1.10;99.90;;;;;;5003874;28;20783;-71
2023/02/27 00:24:50;;;;;;;3.63;2.43;;;1.20;99.90;;;;;;5004238;28;20200;-73
2023/02/27 00:27:15;;;;;;;2.20;2.00;;;1.20;99.90;;;;;;5004642;28;20186;-71
2023/02/27 00:29:41;;;;;;;2.47;2.20;;;1.20;99.90;;;;;;5004302;28;20265;-72
2023/02/27 00:32:06;;;;;;;5.57;2.53;;;1.10;99.90;;;;;;4986984;28;20189;-72
2023/02/27 00:34:32;;;;;;;2.20;2.00;;;1.00;99.90;;;;;;4986712;28;20191;-70
2023/02/27 00:36:57;;;;;;;4.37;2.63;;;1.00;99.90;;;;;;4986017;28;20188;-71
2023/02/27 00:39:23;;;;;;;3.10;2.33;;;0.70;99.90;;;;;;5003587;28;20263;-73
2023/02/27 00:41:48;;;;;;;3.97;2.17;;;0.60;99.90;;;;;;5006991;28;20214;-74
2023/02/27 00:44:14;;;;;;;3.03;2.43;;;0.60;99.90;;;;;;5007389;28;20186;-70
2023/02/27 00:46:39;;;;;;;2.50;1.93;;;0.80;99.90;;;;;;5007978;28;20186;-70
2023/02/27 00:49:05;;;;;;;5.23;2.20;;;0.50;99.90;;;;;;5012689;28;20736;-70
2023/02/27 00:51:31;;;;;;;1.97;1.77;;;0.40;99.90;;;;;;5012799;28;20549;-71
2023/02/27 00:53:56;;;;;;;2.80;2.03;;;0.40;99.90;;;;;;4990980;28;20185;-72
2023/02/27 00:56:22;;;;;;;2.40;2.20;;;0.60;99.90;;;;;;4990279;28;20186;-71
2023/02/27 00:58:47;;;;;;;4.00;2.07;;;0.70;99.90;;;;;;5008061;28;20207;-70
2023/02/27 01:01:14;;;;;;;2.67;2.23;;;0.80;99.90;;;;;;4990106;28;20690;-70
2023/02/27 01:03:39;;;;;;;2.10;1.90;;;0.90;99.90;;;;;;5007883;28;20175;-72
2023/02/27 01:06:05;;;;;;;2.80;2.50;;;0.90;99.90;;;;;;5007193;28;20426;-70
2023/02/27 01:08:31;;;;;;;2.40;2.17;;;0.90;99.90;;;;;;5007565;28;20267;-73
2023/02/27 01:10:56;;;;;;;2.00;1.90;;;0.90;99.90;;;;;;5007239;28;20179;-72
2023/02/27 01:13:22;;;;;;;2.33;2.20;;;0.70;99.90;;;;;;5007685;28;20237;-73
2023/02/27 01:15:48;;;;;;;2.33;2.00;;;0.80;99.90;;;;;;5009335;28;20197;-71
2023/02/27 01:18:14;;;;;;;2.50;2.13;;;0.80;99.90;;;;;;4990501;28;21251;-72
2023/02/27 01:20:40;;;;;;;2.20;2.00;;;0.70;99.90;;;;;;5008420;28;20872;-73
2023/02/27 01:23:05;;;;;;;2.47;2.27;;;0.80;99.90;;;;;;5008372;28;20665;-71
2023/02/27 01:25:31;;;;;;;2.33;2.13;;;0.50;99.90;;;;;;5007679;28;20187;-71
2023/02/27 01:27:56;;;;;;;2.47;2.20;;;0.40;99.90;;;;;;5008551;28;20261;-70
2023/02/27 01:30:22;;;;;;;2.30;2.10;;;0.40;99.90;;;;;;5009228;28;20721;-73
2023/02/27 01:32:48;;;;;;;2.17;1.97;;;0.50;99.90;;;;;;5008765;28;20276;-72
2023/02/27 01:35:13;;;;;;;5.00;2.10;;;0.70;99.90;;;;;;5007953;28;20195;-72
2023/02/27 01:37:39;;;;;;;5.03;3.30;;;0.80;99.90;;;;;;5008936;28;20186;-70
2023/02/27 01:40:06;;;;;;;6.10;3.33;;;0.80;99.90;;;;;;5007427;28;20211;-71
2023/02/27 01:42:32;;;;;;;3.27;2.87;;;0.80;99.90;;;;;;5006584;28;20184;-69
2023/02/27 01:45:10;;;;;;;3.70;2.53;;;0.80;99.90;;;;;;5006187;28;20418;-70
2023/02/27 01:47:37;;;;;;;3.23;2.00;;;0.60;99.90;;;;;;5006372;28;20423;-70
2023/02/27 01:50:03;;;;;;;6.07;2.73;;;0.70;99.90;;;;;;4988154;28;20477;-71
2023/02/27 01:52:31;;;;;;;3.93;2.73;;;0.80;99.90;;;;;;5004882;28;20422;-69
2023/02/27 01:54:57;;;;;;;2.20;2.00;;;0.80;99.90;;;;;;5006417;28;20423;-70
2023/02/27 01:57:23;;;;;;;2.50;2.17;;;0.90;99.90;;;;;;5006378;28;20427;-71
2023/02/27 01:59:49;;;;;;;1.87;1.73;;;0.80;99.90;;;;;;5005894;28;20478;-71
2023/02/27 02:02:24;;;;;;;4.20;2.77;;;0.90;99.90;;;;;;5005730;28;20284;-69
2023/02/27 02:04:50;;;;;;;6.67;2.40;;;0.80;99.90;;;;;;5006586;28;20686;-71
2023/02/27 02:07:19;;;;;;;2.83;2.60;;;0.50;99.90;;;;;;5007135;28;20410;-72
2023/02/27 02:09:51;;;;;;;2.97;2.50;;;0.40;99.90;;;;;;5007148;28;20959;-71
2023/02/27 02:12:21;;;;;;;3.00;2.20;;;0.60;99.90;;;;;;5007395;28;20410;-70
2023/02/27 02:14:47;;;;;;;3.57;3.00;;;0.70;99.90;;;;;;5006616;28;20414;-70
2023/02/27 02:17:44;;;;;;;3.40;2.73;;;0.70;99.90;;;;;;5006216;28;20424;-69
2023/02/27 02:20:47;;;;;;;3.10;2.50;;;0.50;99.90;;;;;;5009553;28;20202;-72
2023/02/27 02:23:12;;;;;;;3.00;2.07;;;0.30;99.90;;;;;;4988303;28;20452;-72
2023/02/27 02:26:08;;;;;;;2.63;2.43;;;0.30;99.90;;;;;;4987956;28;20446;-72
2023/02/27 02:29:11;;;;;;;4.70;2.43;;;0.40;99.90;;;;;;5005236;28;20664;-70
2023/02/27 02:32:02;;;;;;;3.20;2.90;;;0.40;99.90;;;;;;5005641;28;20421;-71
2023/02/27 02:35:05;;;;;;;2.40;2.20;;;0.40;99.90;;;;;;5005575;28;20869;-72
2023/02/27 02:37:39;;;;;;;4.77;2.50;;;0.60;99.90;;;;;;5005100;28;20948;-72
2023/02/27 02:40:51;;;;;;;3.10;2.50;;;0.60;99.90;;;;;;5005175;28;20464;-72
2023/02/27 02:43:30;;;;;;;4.67;2.50;;;0.50;99.90;;;;;;4996417;28;20829;-70
2023/02/27 02:46:13;;;;;;;5.63;2.90;;;0.40;99.90;;;;;;5004827;28;20402;-70
2023/02/27 02:48:47;;;;;;;2.70;2.40;;;0.50;99.90;;;;;;5004829;28;20856;-71
2023/02/27 02:51:54;;;;;;;2.40;2.20;;;0.40;99.90;;;;;;5004771;28;20476;-72
2023/02/27 02:54:30;;;;;;;5.70;2.90;;;0.50;99.90;;;;;;5004981;28;20414;-69
2023/02/27 02:57:13;;;;;;;4.23;3.13;;;0.50;99.90;;;;;;5005126;28;20413;-71
2023/02/27 02:59:56;;;;;;;3.57;2.63;;;0.50;99.90;;;;;;5004624;28;20944;-69
2023/02/27 03:02:26;;;;;;;4.03;2.40;;;0.50;99.90;;;;;;5004738;28;20480;-72
2023/02/27 03:05:20;;;;;;;2.63;2.43;;;0.50;99.90;;;;;;5004471;28;20494;-72
2023/02/27 03:08:03;;;;;;;2.97;2.77;;;0.40;99.90;;;;;;5004011;28;20765;-69
2023/02/27 03:10:57;;;;;;;3.57;2.07;;;0.50;99.90;;;;;;5004044;28;20437;-72
2023/02/27 03:13:35;;;;;;;4.10;2.97;;;0.60;99.90;;;;;;4996136;28;20424;-72
2023/02/27 03:16:15;;;;;;;8.83;3.07;;;0.30;99.90;;;;;;4986566;28;20416;-73
2023/02/27 03:18:48;;;;;;;3.37;3.07;;;0.30;99.90;;;;;;5003997;28;20448;-72
2023/02/27 03:21:21;;;;;;;4.23;3.20;;;0.40;99.90;;;;;;4986342;28;20460;-69
2023/02/27 03:23:50;;;;;;;3.27;2.90;;;0.50;99.90;;;;;;5004311;28;20457;-72
2023/02/27 03:26:22;;;;;;;3.27;2.97;;;0.50;99.90;;;;;;5004218;28;20416;-70
2023/02/27 03:29:13;;;;;;;5.17;2.90;;;0.50;99.90;;;;;;4986631;28;20463;-72
2023/02/27 03:32:20;;;;;;;3.23;2.50;;;0.50;99.90;;;;;;5003595;28;20424;-71
2023/02/27 03:34:46;;;;;;;3.83;3.00;;;0.60;99.90;;;;;;4996175;28;20772;-72
2023/02/27 03:37:38;;;;;;;4.83;3.60;;;0.30;99.90;;;;;;4985772;28;20795;-72
2023/02/27 03:40:16;;;;;;;4.87;2.43;;;0.20;99.90;;;;;;5003666;28;20838;-69
2023/02/27 03:42:54;;;;;;;2.73;2.37;;;0.30;99.90;;;;;;4986261;28;20414;-72
2023/02/27 03:45:41;;;;;;;3.20;3.00;;;0.30;99.90;;;;;;5003607;28;20457;-72
2023/02/27 03:48:07;;;;;;;5.63;2.77;;;0.30;99.90;;;;;;5003365;28;20464;-71
2023/02/27 03:50:35;;;;;;;4.27;3.40;;;0.20;99.90;;;;;;5017173;22;20514;-71
2023/02/27 03:53:05;;;;;;;3.97;2.63;;;0.30;99.90;;;;;;5002506;28;20430;-70
2023/02/27 03:55:35;;;;;;;4.50;3.17;;;0.40;99.90;;;;;;5003753;28;20402;-73
2023/02/27 03:58:01;;;;;;;5.00;3.33;;;0.40;99.90;;;;;;4994906;28;20407;-70
2023/02/27 04:00:27;;;;;;;4.07;2.90;;;0.50;99.90;;;;;;4991233;28;20826;-71
2023/02/27 04:02:56;;;;;;;4.33;3.00;;;0.40;99.90;;;;;;4998996;28;20183;-72
2023/02/27 04:05:21;;;;;;;3.73;2.77;;;0.40;99.90;;;;;;4999030;28;20416;-71
2023/02/27 04:08:11;;;;;;;3.10;2.70;;;0.30;99.90;;;;;;4996659;28;20427;-73
2023/02/27 04:11:06;;;;;;;4.70;2.83;;;0.20;99.90;;;;;;4993743;28;20525;-70
2023/02/27 04:14:02;;;;;;;3.30;2.80;;;0.00;99.90;;;;;;4984663;28;20871;-70
2023/02/27 04:17:00;;;;;;;3.33;3.03;;;0.10;99.90;;;;;;4989307;28;20403;-70
2023/02/27 04:20:16;;;;;;;2.70;2.43;;;0.10;99.90;;;;;;4977469;28;20454;-70
2023/02/27 04:23:01;;;;;;;4.67;3.73;;;0.20;99.90;;;;;;4956501;28;20423;-69
2023/02/27 04:25:42;;;;;;;4.37;3.20;;;0.20;99.90;;;;;;4990651;28;20422;-74
2023/02/27 04:28:20;;;;;;;4.20;3.53;;;0.10;99.90;;;;;;4990283;28;20423;-69
2023/02/27 04:31:00;;;;;;;3.97;2.90;;;0.10;99.90;;;;;;4990195;28;20821;-72
2023/02/27 04:33:42;;;;;;;3.87;2.90;;;0.10;99.90;;;;;;4990432;28;20986;-70
2023/02/27 04:36:29;;;;;;;4.63;3.30;;;0.10;99.90;;;;;;4990099;28;20426;-71
2023/02/27 04:39:04;;;;;;;4.37;3.97;;;0.10;99.90;;;;;;4989954;28;20426;-69
2023/02/27 04:42:00;;;;;;;4.90;3.63;;;0.20;99.90;;;;;;4991150;28;21156;-73
2023/02/27 04:44:29;;;;;;;12.10;3.70;;;0.20;99.90;;;;;;4991365;28;20443;-70
2023/02/27 04:46:57;;;;;;;4.77;3.20;;;0.00;99.90;;;;;;4991326;28;20421;-74
2023/02/27 04:49:32;;;;;;;4.73;3.77;;;0.00;99.90;;;;;;4971957;28;20471;-69
2023/02/27 04:52:04;;;;;;;8.43;3.67;;;0.00;99.90;;;;;;4990130;28;20504;-72
2023/02/27 04:54:40;;;;;;;4.17;3.40;;;0.00;99.90;;;;;;4990279;28;20888;-70
2023/02/27 04:57:11;;;;;;;5.57;3.27;;;0.10;99.90;;;;;;4990288;28;20946;-68
2023/02/27 04:59:42;;;;;;;3.87;3.57;;;0.10;99.90;;;;;;4990394;28;20509;-71
2023/02/27 05:02:32;;;;;;;3.43;3.10;;;0.10;99.90;;;;;;4990479;28;20456;-72
2023/02/27 05:05:00;;;;;;;4.30;3.83;;;0.00;99.90;;;;;;4990168;28;20449;-69
2023/02/27 05:07:32;;;;;;;8.33;4.10;;;-0.10;99.90;;;;;;4989791;28;20817;-69
2023/02/27 05:10:29;;;;;;;4.80;4.00;;;-0.20;99.90;;;;;;4989843;28;20429;-74
2023/02/27 05:13:04;;;;;;;3.37;3.13;;;-0.20;99.90;;;;;;4972669;28;20492;-70
2023/02/27 05:15:59;;;;;;;4.20;3.60;;;-0.30;99.90;;;;;;4990540;28;20447;-70
2023/02/27 05:18:25;;;;;;;6.57;4.33;;;-0.30;99.90;;;;;;4977977;28;20532;-69
2023/02/27 05:21:23;;;;;;;4.23;3.83;;;-0.30;99.90;;;;;;4990136;28;20469;-70
2023/02/27 05:24:14;;;;;;;4.07;3.50;;;-0.30;99.90;;;;;;4989676;28;20448;-69
2023/02/27 05:27:15;;;;;;;3.53;3.23;;;-0.30;99.90;;;;;;4988776;28;20407;-69
2023/02/27 05:29:56;;;;;;;4.87;3.97;;;-0.40;99.90;;;;;;4979028;28;20994;-70
2023/02/27 05:32:44;;;;;;;5.20;4.20;;;-0.50;99.90;;;;;;4986644;28;20935;-70
2023/02/27 05:35:21;;;;;;;8.60;7.70;;;-0.50;99.90;;;;;;4985233;28;21075;-69
2023/02/27 05:37:58;;;;;;;5.57;5.00;;;-0.60;99.90;;;;;;4986351;28;20429;-73
2023/02/27 05:40:31;;;;;;;4.27;3.87;;;-0.60;99.90;;;;;;4986794;28;20461;-71
2023/02/27 05:43:07;;;;;;;6.10;3.73;;;-0.60;99.90;;;;;;4982565;28;21143;-69
2023/02/27 05:45:36;;;;;;;4.73;4.33;;;-0.70;99.90;;;;;;4986783;28;20423;-69
2023/02/27 05:48:26;;;;;;;7.97;4.23;;;-0.60;99.90;;;;;;4986959;28;20410;-69
2023/02/27 05:50:53;;;;;;;4.40;3.53;;;-0.60;99.90;;;;;;4986264;28;20644;-73
2023/02/27 05:53:21;;;;;;;4.73;4.20;;;-0.70;99.90;;;;;;4968669;28;20440;-71
2023/02/27 05:55:51;;;;;;;5.67;4.03;;;-0.60;99.90;;;;;;4985903;28;20430;-70
2023/02/27 05:58:34;;;;;;;5.83;4.80;;;-0.50;99.90;;;;;;4985913;28;20943;-70
2023/02/27 06:01:02;;;;;;;13.50;4.20;;;-0.60;99.90;;;;;;4986054;28;20836;-70
2023/02/27 06:03:30;;;;;;;6.23;4.00;;;-0.60;99.90;;;;;;4986034;28;20422;-68
2023/02/27 06:05:59;;;;;;;5.10;4.13;;;-0.70;99.90;;;;;;4986099;28;20419;-71
2023/02/27 06:08:25;;;;;;;6.17;4.73;;;-0.70;99.90;;;;;;4979881;28;20428;-70
2023/02/27 06:10:51;;;;;;;4.20;3.80;;;-0.80;99.90;;;;;;4986146;28;20483;-69
2023/02/27 06:13:17;;;;;;;5.60;4.00;;;-0.80;99.90;;;;;;4985734;28;20752;-69
2023/02/27 06:15:44;;;;;;;4.60;4.20;;;-0.70;99.90;;;;;;4985918;28;20657;-70
2023/02/27 06:18:13;;;;;;;5.20;4.23;;;-0.70;99.90;;;;;;4985516;28;20403;-69
2023/02/27 06:20:40;;;;;;;4.90;4.40;;;-0.70;99.90;;;;;;4985169;28;20462;-69
2023/02/27 06:23:06;;;;;;;5.47;4.97;;;-0.90;99.90;;;;;;4985648;28;20412;-74
2023/02/27 06:25:32;;;;;;;7.67;5.87;;;-1.00;99.90;;;;;;4985784;28;20417;-71
2023/02/27 06:27:57;;;;;;;7.60;5.00;;;-0.90;99.90;;;;;;4984363;28;20475;-73
2023/02/27 06:30:23;;;;;;;5.00;4.07;;;-0.80;99.90;;;;;;4982652;28;21021;-69
2023/02/27 06:32:48;;;;;;;7.60;4.97;;;-0.70;99.90;;;;;;4979536;28;20842;-69
2023/02/27 06:35:14;;;;;;;6.30;4.70;;;-0.70;99.90;;;;;;4985577;28;20499;-69
2023/02/27 06:37:40;;;;;;;4.70;4.10;;;-0.70;99.90;;;;;;4985116;28;20606;-69
2023/02/27 06:40:13;;;;;;;8.00;6.33;;;-0.50;99.90;;;;;;4984947;28;20251;-70
2023/02/27 06:42:42;;;;;;;9.70;6.03;;;-0.70;99.90;;;;;;4983855;28;20191;-69
2023/02/27 06:45:09;;;;;;;5.97;4.90;;;-0.60;99.90;;;;;;4984004;28;20461;-69
2023/02/27 06:47:35;;;;;;;5.10;4.60;;;-0.60;99.90;;;;;;4985428;28;20509;-68
2023/02/27 06:50:01;;;;;;;7.00;6.30;;;-0.50;99.90;;;;;;4985174;28;20568;-69
2023/02/27 06:52:27;;;;;;;7.70;5.47;;;-0.50;99.90;;;;;;4985075;28;20187;-70
2023/02/27 06:54:53;;;;;;;9.20;5.50;;;-0.50;99.90;;;;;;4984959;28;20300;-70
2023/02/27 06:57:19;;;;;;;6.10;5.40;;;-0.50;99.90;;;;;;4984981;28;20513;-74
2023/02/27 06:59:44;;;;;;;10.10;5.73;;;-0.50;99.90;;;;;;4984584;28;20209;-69
2023/02/27 07:02:15;;;;;;;9.20;5.10;;;-0.40;99.90;;;;;;4976816;28;20942;-70
2023/02/27 07:04:40;;;;;;;7.20;4.40;;;-0.40;99.90;;;;;;4984746;28;20752;-69
2023/02/27 07:07:06;;;;;;;6.30;5.70;;;-0.40;99.90;;;;;;4984914;28;20497;-69
2023/02/27 07:09:32;;;;;;;5.70;5.17;;;-0.30;99.90;;;;;;4984384;28;20197;-69
2023/02/27 07:11:58;;;;;;;7.03;5.33;;;-0.40;99.90;;;;;;4984874;28;20417;-72
2023/02/27 07:14:24;;;;;;;8.20;5.60;;;-0.30;99.90;;;;;;4973317;28;20523;-68
2023/02/27 07:16:53;;;;;;;7.00;5.20;;;-0.10;99.90;;;;;;4984799;28;20182;-72
2023/02/27 07:19:20;;;;;;;5.80;4.87;;;-0.20;99.90;;;;;;4984788;28;20469;-70
2023/02/27 07:21:45;;;;;;;4.60;4.07;;;-0.10;99.90;;;;;;4984723;28;20419;-68
2023/02/27 07:24:11;;;;;;;4.87;4.10;;;-0.10;99.90;;;;;;4984302;28;20550;-70
2023/02/27 07:26:37;;;;;;;7.47;5.67;;;-0.10;99.90;;;;;;4984616;28;20542;-70
2023/02/27 07:29:03;;;;;;;7.77;5.60;;;-0.30;99.90;;;;;;4983558;28;20666;-71
2023/02/27 07:31:29;;;;;;;20.60;6.27;;;-0.30;99.90;;;;;;4984031;28;20190;-69
2023/02/27 07:33:54;;;;;;;7.17;6.47;;;-0.30;99.90;;;;;;4984281;28;20422;-71
2023/02/27 07:36:20;;;;;;;7.13;4.60;;;-0.30;99.90;;;;;;4984802;28;20676;-68
2023/02/27 07:38:46;;;;;;;5.80;4.90;;;-0.30;99.90;;;;;;4983930;28;20197;-68
2023/02/27 07:41:11;;;;;;;5.10;3.97;;;-0.30;99.90;;;;;;4984404;28;20681;-68
2023/02/27 07:43:37;;;;;;;7.17;5.70;;;-0.20;99.90;;;;;;4984110;28;20498;-68
2023/02/27 07:46:02;;;;;;;7.47;5.10;;;-0.20;99.90;;;;;;4984394;28;20187;-71
2023/02/27 07:48:31;;;;;;;6.47;4.67;;;-0.20;99.90;;;;;;4984846;28;20270;-69
2023/02/27 07:50:57;;;;;;;7.67;5.00;;;-0.20;99.90;;;;;;4983133;28;20288;-68
2023/02/27 07:53:23;;;;;;;5.60;4.73;;;-0.20;99.90;;;;;;4984095;28;20435;-68
2023/02/27 07:55:48;;;;;;;10.00;5.57;;;-0.10;99.90;;;;;;4984069;28;20189;-68
2023/02/27 07:58:14;;;;;;;6.13;4.00;;;-0.10;99.90;;;;;;4984048;28;20414;-69
2023/02/27 08:00:40;;;;;;;5.97;4.53;;;0.00;99.90;;;;;;4983928;28;20210;-70
2023/02/27 08:03:05;;;;;;;5.37;4.10;;;0.10;99.90;;;;;;4984040;28;20271;-71
2023/02/27 08:05:31;;;;;;;8.30;4.10;;;0.10;99.90;;;;;;4983129;28;20179;-68
2023/02/27 08:07:57;;;;;;;4.80;4.13;;;0.10;99.90;;;;;;4983979;28;20619;-67
2023/02/27 08:10:23;;;;;;;6.90;4.80;;;0.20;99.90;;;;;;4966212;28;20229;-69
2023/02/27 08:12:48;;;;;;;4.40;3.73;;;0.30;99.90;;;;;;4983572;28;20223;-68
2023/02/27 08:15:14;;;;;;;4.43;4.03;;;0.40;99.90;;;;;;4984259;28;20488;-68
2023/02/27 08:17:39;;;;;;;5.40;4.20;;;0.50;99.90;;;;;;4967842;28;20197;-73
2023/02/27 08:20:06;;;;;;;4.70;4.20;;;0.60;99.90;;;;;;4982883;28;20757;-70
2023/02/27 08:22:32;;;;;;;23.93;5.83;;;0.60;99.90;;;;;;4983046;28;20621;-68
2023/02/27 08:24:57;;;;;;;5.13;3.60;;;0.70;99.90;;;;;;4983785;28;20419;-68
2023/02/27 08:27:23;;;;;;;6.00;3.93;;;0.70;99.90;;;;;;4965962;28;20510;-69
2023/02/27 08:29:49;;;;;;;5.13;4.63;;;0.80;99.90;;;;;;4979713;28;20223;-68
2023/02/27 08:32:14;;;;;;;4.30;3.90;;;0.80;99.90;;;;;;4983976;28;20192;-69
2023/02/27 08:34:40;;;;;;;4.07;3.77;;;0.90;99.90;;;;;;4968521;28;20192;-71
2023/02/27 08:37:05;;;;;;;5.00;4.10;;;1.00;99.90;;;;;;4983925;28;20188;-69
2023/02/27 08:39:31;;;;;;;5.00;3.30;;;1.00;99.90;;;;;;4983528;28;20204;-72
2023/02/27 08:41:57;;;;;;;4.23;3.80;;;1.10;99.90;;;;;;4983698;28;20191;-69
2023/02/27 08:44:23;;;;;;;4.37;3.40;;;1.20;99.90;;;;;;4983209;28;20969;-71
2023/02/27 08:46:48;;;;;;;4.33;3.80;;;1.40;99.90;;;;;;4983693;28;20534;-69
2023/02/27 08:49:14;;;;;;;4.70;3.20;;;1.40;99.90;;;;;;4983213;28;20701;-70
2023/02/27 08:51:40;;;;;;;3.97;3.63;;;1.40;99.90;;;;;;4982232;28;20199;-69
2023/02/27 08:54:05;;;;;;;3.50;3.00;;;1.40;99.90;;;;;;4983450;28;20267;-69
2023/02/27 08:56:33;;;;;;;3.50;3.20;;;1.40;99.90;;;;;;4983609;28;20270;-73
2023/02/27 08:58:59;;;;;;;4.13;3.73;;;1.60;99.90;;;;;;4982829;28;20191;-68
2023/02/27 09:01:26;;;;;;;6.97;3.27;;;1.70;99.90;;;;;;4984231;28;21286;-69
2023/02/27 09:03:52;;;;;;;3.40;3.10;;;1.80;99.90;;;;;;4988210;28;20427;-68
2023/02/27 09:06:18;;;;;;;3.53;2.87;;;1.80;99.90;;;;;;4986979;28;20415;-69
2023/02/27 09:08:43;;;;;;;4.30;3.33;;;1.80;99.90;;;;;;4983867;28;20181;-69
2023/02/27 09:11:09;;;;;;;4.10;3.40;;;1.90;99.90;;;;;;4981304;28;20189;-69
2023/02/27 09:13:34;;;;;;;3.50;3.20;;;2.00;99.90;;;;;;4978475;28;20266;-70
2023/02/27 09:16:00;;;;;;;5.80;3.43;;;2.10;99.90;;;;;;4987369;28;20199;-68
2023/02/27 09:18:26;;;;;;;4.40;3.70;;;2.10;99.90;;;;;;4987292;28;20196;-73
2023/02/27 09:20:51;;;;;;;3.80;3.37;;;2.30;99.90;;;;;;4986856;28;20580;-69
2023/02/27 09:23:17;;;;;;;4.77;3.53;;;2.40;99.90;;;;;;4969200;28;20634;-69
2023/02/27 09:25:43;;;;;;;6.63;3.40;;;2.30;99.90;;;;;;4955556;28;20180;-69
2023/02/27 09:28:09;;;;;;;4.53;3.37;;;2.40;99.90;;;;;;4985915;28;20856;-70
2023/02/27 09:30:34;;;;;;;5.80;4.50;;;2.30;99.90;;;;;;4986759;28;20682;-69
2023/02/27 09:33:00;;;;;;;7.20;3.50;;;2.40;99.90;;;;;;4986627;28;20258;-70
2023/02/27 09:35:26;;;;;;;3.33;3.03;;;2.50;99.90;;;;;;4986793;28;20185;-72
2023/02/27 09:37:51;;;;;;;6.07;3.67;;;2.50;99.90;;;;;;4986666;28;20192;-70
2023/02/27 09:40:26;;;;;;;4.13;3.27;;;2.60;99.90;;;;;;4986561;28;20212;-68
2023/02/27 09:42:56;;;;;;;3.40;3.10;;;2.60;99.90;;;;;;4985188;28;20243;-70
2023/02/27 09:45:28;;;;;;;3.47;3.27;;;2.70;99.90;;;;;;4986391;28;20929;-70
2023/02/27 09:48:05;;;;;;;3.10;2.90;;;2.80;99.90;;;;;;4968884;28;20412;-69
2023/02/27 09:50:43;;;;;;;5.60;3.17;;;2.80;99.90;;;;;;4986151;28;20467;-68
2023/02/27 09:53:25;;;;;;;3.50;2.90;;;2.80;99.90;;;;;;4986257;28;20419;-71
2023/02/27 09:55:53;;;;;;;5.63;3.07;;;3.00;99.90;;;;;;4986007;28;20981;-74
2023/02/27 09:58:46;;;;;;;4.60;3.30;;;3.10;99.90;;;;;;4985827;28;20427;-73
2023/02/27 10:01:34;;;;;;;3.30;3.00;;;3.20;99.90;;;;;;4986291;28;20818;-68
2023/02/27 10:04:23;;;;;;;6.17;2.80;;;3.40;99.90;;;;;;4968438;28;20436;-69
2023/02/27 10:06:55;;;;;;;2.50;2.30;;;3.70;99.10;;;;;;4985954;28;20436;-70
2023/02/27 10:09:39;;;;;;;4.30;2.60;;;3.70;98.00;;;;;;4986101;28;20478;-72
2023/02/27 10:12:32;;;;;;;2.60;2.30;;;3.70;97.20;;;;;;4982885;28;21008;-69
2023/02/27 10:15:18;;;;;;;2.50;2.30;;;3.70;96.60;;;;;;4985311;28;20775;-72
2023/02/27 10:17:49;;;;;;;2.63;2.23;;;3.70;96.10;;;;;;4986065;28;20931;-70
2023/02/27 10:20:36;;;;;;;3.17;2.40;;;3.50;95.30;;;;;;4985609;28;20470;-69
2023/02/27 10:23:18;;;;;;;2.80;2.50;;;3.60;95.40;;;;;;4985313;28;20550;-69
2023/02/27 10:25:47;;;;;;;2.97;2.60;;;3.80;95.10;;;;;;4985475;28;20411;-69
2023/02/27 10:28:15;;;;;;;3.47;2.43;;;3.70;94.70;;;;;;4985111;28;20915;-70
2023/02/27 10:30:50;;;;;;;2.40;2.20;;;3.90;95.10;;;;;;4985434;28;20459;-69
2023/02/27 10:33:38;;;;;;;2.77;2.57;;;4.00;94.80;;;;;;5001408;23;20506;-73
2023/02/27 10:36:10;;;;;;;3.23;2.63;;;4.00;94.30;;;;;;4986055;28;20400;-71
2023/02/27 10:38:47;;;;;;;2.53;2.33;;;3.90;94.00;;;;;;4985701;28;20454;-72
2023/02/27 10:41:15;;;;;;;2.20;2.00;;;4.00;94.30;;;;;;4993064;28;20949;-71
2023/02/27 10:43:41;;;;;;;3.77;3.13;;;4.40;93.70;;;;;;4968851;28;20535;-71
2023/02/27 10:46:23;;;;;;;3.40;2.50;;;4.30;93.00;;;;;;4985176;28;21093;-73
2023/02/27 10:48:49;;;;;;;6.63;2.47;;;4.40;92.50;;;;;;4985377;28;20421;-70
2023/02/27 10:51:30;;;;;;;2.77;2.30;;;4.50;92.30;;;;;;4985402;28;20447;-69
2023/02/27 10:54:19;;;;;;;2.57;2.37;;;4.50;91.90;;;;;;4984838;28;20440;-70
2023/02/27 10:56:49;;;;;;;4.10;2.57;;;4.60;91.50;;;;;;4967672;28;20535;-70
2023/02/27 10:59:29;;;;;;;4.17;2.43;;;4.40;91.40;;;;;;4984597;28;20442;-69
2023/02/27 11:01:56;;;;;;;3.13;2.20;;;4.30;90.80;;;;;;4985052;28;20408;-71
2023/02/27 11:04:30;;;;;;;2.00;1.80;;;4.20;90.60;;;;;;4967718;28;20455;-71
2023/02/27 11:06:59;;;;;;;3.00;2.50;;;4.10;89.10;;;;;;4967776;28;20415;-72
2023/02/27 11:09:27;;;;;;;3.30;1.90;;;4.40;90.20;;;;;;4967163;28;20407;-70
2023/02/27 11:11:54;;;;;;;2.33;1.80;;;4.60;90.00;;;;;;4985301;28;20452;-72
2023/02/27 11:14:25;;;;;;;2.77;2.23;;;4.80;89.40;;;;;;4984560;28;20945;-72
2023/02/27 11:16:56;;;;;;;5.00;2.30;;;4.50;88.30;;;;;;4967502;28;20952;-72
2023/02/27 11:19:34;;;;;;;5.00;2.63;;;4.50;90.20;;;;;;4985307;28;20827;-71
2023/02/27 11:22:06;;;;;;;2.30;2.10;;;5.00;90.10;;;;;;4984814;28;20507;-71
2023/02/27 11:24:33;;;;;;;4.47;2.70;;;5.70;88.20;;;;;;4983989;28;20405;-72
2023/02/27 11:27:05;;;;;;;2.60;2.40;;;6.40;85.00;;;;;;4982912;28;20430;-71
2023/02/27 11:29:33;;;;;;;2.53;2.33;;;7.50;83.00;;;;;;4984740;28;20434;-70
2023/02/27 11:32:13;;;;;;;2.73;2.30;;;7.70;79.30;;;;;;4966552;28;20521;-71
2023/02/27 11:34:46;;;;;;;5.93;2.27;;;7.60;76.40;;;;;;4966886;28;20528;-72
2023/02/27 11:37:27;;;;;;;2.57;2.10;;;7.70;77.60;;;;;;4967396;28;20412;-71
2023/02/27 11:40:08;;;;;;;2.87;2.20;;;8.80;75.60;;;;;;4984430;28;20445;-71
2023/02/27 11:42:40;;;;;;;4.10;2.40;;;9.00;72.20;;;;;;4983842;28;20490;-71
2023/02/27 11:45:22;;;;;;;3.70;2.93;;;9.30;69.50;;;;;;4984456;28;20855;-70
2023/02/27 11:47:55;;;;;;;2.60;2.30;;;7.80;69.90;;;;;;4984582;28;20414;-73
2023/02/27 11:51:00;;;;;;;3.30;2.37;;;7.40;72.50;;;;;;4966893;28;20426;-70
2023/02/27 11:53:36;;;;;;;3.97;2.60;;;7.30;73.40;;;;;;4984346;28;20518;-74
2023/02/27 11:56:07;;;;;;;4.53;2.40;;;7.30;74.70;;;;;;4984074;28;20409;-73
2023/02/27 11:58:42;;;;;;;2.10;1.90;;;7.00;73.60;;;;;;4983997;28;20420;-72
2023/02/27 12:01:19;;;;;;;2.60;2.33;;;7.30;72.60;;;;;;4983752;28;20444;-71
2023/02/27 12:03:48;;;;;;;3.20;2.50;;;7.20;73.10;;;;;;4984163;28;20442;-71
2023/02/27 12:06:39;;;;;;;2.97;2.40;;;7.70;73.60;;;;;;4984227;28;20925;-72
2023/02/27 12:09:15;;;;;;;2.80;2.50;;;8.20;71.70;;;;;;4966589;28;20442;-73
2023/02/27 12:11:44;;;;;;;4.07;3.40;;;8.10;71.50;;;;;;4983979;28;20423;-72
2023/02/27 12:14:20;;;;;;;5.23;2.83;;;9.00;70.80;;;;;;4983665;28;20445;-70
2023/02/27 12:16:58;;;;;;;4.00;2.03;;;10.30;67.20;;;;;;4983940;28;20410;-72
2023/02/27 12:19:29;;;;;;;3.50;2.40;;;10.90;63.10;;;;;;4983907;28;20494;-70
2023/02/27 12:22:05;;;;;;;2.30;2.10;;;10.20;63.60;;;;;;4983837;28;20412;-70
2023/02/27 12:24:38;;;;;;;3.27;2.70;;;10.80;63.10;;;;;;4983877;28;20498;-69
2023/02/27 12:27:23;;;;;;;2.97;2.40;;;10.50;61.40;;;;;;4983562;28;20465;-69
2023/02/27 12:30:13;;;;;;;2.33;2.13;;;10.50;62.40;;;;;;4983952;28;20408;-70
2023/02/27 12:32:47;;;;;;;2.37;2.17;;;10.20;61.00;;;;;;4972424;28;20470;-70
2023/02/27 12:35:19;;;;;;;5.87;3.03;;;9.90;63.30;;;;;;4983731;28;20473;-69
2023/02/27 12:37:45;;;;;;;2.60;2.13;;;9.70;63.30;;;;;;4969237;28;20419;-73
2023/02/27 12:40:18;;;;;;;3.43;2.63;;;10.30;61.80;;;;;;4988193;28;20452;-72
2023/02/27 12:43:08;;;;;;;2.60;2.27;;;10.70;60.20;;;;;;4988414;28;20287;-72
2023/02/27 12:46:18;;;;;;;2.73;2.50;;;9.80;60.90;;;;;;4988138;28;20424;-69
2023/02/27 12:48:59;;;;;;;4.70;2.90;;;8.20;64.60;;;;;;4957757;28;20521;-72
2023/02/27 12:51:48;;;;;;;4.63;2.57;;;7.00;68.10;;;;;;4988359;28;20480;-72
2023/02/27 12:54:18;;;;;;;3.00;2.70;;;6.70;68.50;;;;;;4970363;28;20776;-72
2023/02/27 12:57:19;;;;;;;3.13;2.80;;;7.20;71.00;;;;;;4987638;28;20506;-71
2023/02/27 13:00:07;;;;;;;5.03;2.20;;;8.40;66.80;;;;;;4907835;29;20445;-70
2023/02/27 13:02:57;;;;;;;2.90;2.13;;;8.30;65.90;;;;;;4982580;28;20445;-72
2023/02/27 13:06:04;;;;;;;2.40;2.20;;;6.80;67.50;;;;;;4969681;28;20721;-69
2023/02/27 13:08:57;;;;;;;4.23;2.83;;;6.40;69.20;;;;;;4917091;28;20465;-69
2023/02/27 13:11:23;;;;;;;3.20;2.90;;;5.80;71.20;;;;;;4987393;28;20447;-71
2023/02/27 13:13:58;;;;;;;3.17;2.80;;;5.40;73.20;;;;;;4986517;28;20527;-69
2023/02/27 13:16:35;;;;;;;2.97;2.27;;;5.20;73.60;;;;;;4987229;28;20558;-73
2023/02/27 13:19:27;;;;;;;5.07;2.57;;;5.30;74.40;;;;;;4987642;28;20451;-71
2023/02/27 13:22:00;;;;;;;3.00;2.70;;;5.40;74.30;;;;;;4969750;28;20448;-70
2023/02/27 13:24:31;;;;;;;3.07;2.30;;;5.40;74.00;;;;;;4986545;28;20800;-70
2023/02/27 13:27:02;;;;;;;5.30;2.47;;;6.40;74.40;;;;;;4968946;28;20480;-70